Gaffney, SC

5:36 PM EDT on October 20, 2014 (GMT -0400)
Corinth Community | Change Station
CLOSE
Current Station
Personal Weather Station
Location: Gaffney, SC
Elevation: 669 ft
Nearby Weather Stations

Elev 669 ft 34.98 °N, 81.61 °W | Updated 1 second ago

Clear
Clear
68.8 °F
Feels Like 68.8 °F
N
0.7
Wind Variable Wind from North
Gusts 3.1 mph

Today
High -- | Low -- °F
--% Chance of Precip.
Yesterday
High -- | Low -- °F
Precip. -- in
7:36 AM 6:45 PM
Waning Crescent, 9% visible
Pressure 29.99 in
Visibility 10.0 miles
Clouds Clear
Dew Point 52 °F
Humidity 55%
Rainfall 0.00 in
Snow Depth Not available.
UV 0.0 out of 12
Pollen 2.70 out of 12
Ozone Good
PM2.5 Good
Flu Activity Sporadic
METAR KEHO 202115Z AUTO 21008KT 10SM CLR 20/10 A2999 RMK AO2 T02020095

More Conditions Fewer Conditions

Pressure 29.99 in
Visibility 10.0 miles
Clouds Clear
Dew Point 52 °F
Humidity 55%
Rainfall 0.00 in
Snow Depth Not available.
UV 0.0 out of 12
Pollen 2.70 out of 12
Ozone Good
PM2.5 Good
Flu Activity Sporadic
METAR KEHO 202115Z AUTO 21008KT 10SM CLR 20/10 A2999 RMK AO2 T02020095

More Conditions Fewer Conditions

10-Day Weather Forecast

Almanac

Astronomy

Oct. 20, 2014 Rise Set
Actual Time 7:36 AM EDT 6:45 PM EDT
Civil Twilight 7:11 AM EDT 7:11 PM EDT
Nautical Twilight 6:41 AM EDT 7:40 PM EDT
Astronomical Twilight 6:12 AM EDT 8:09 PM EDT
Moon 4:30 AM EDT 5:01 PM EDT
Length of Visible Light 11h 59m
Length of Day
11h 08m
Waning Crescent, 9% of the Moon is Illuminated
Today
Waning Crescent
Oct 23
New
Oct 30
First Quarter
Nov 6
Full
Nov 14
Last Quarter

Today's Extremes

State Highs State Lows

Community

WunderPhotos

Upload Photos

1,763,525 photos uploaded!

WunderBlogs® & News

Nearby

Air Quality

  Air Quality AQ Index Pollutant
Yesterday Good
OZONE
Yesterday Good
PM2.5
Current Good
OZONE
Current Good
PM2.5

Snow Depth

Station Depth Elevation
No new snow has been reported.

Earthquake Activity

City Distance Mag. Time & Date
No recent earthquake activity has been reported nearby.
Minimum magnitude displayed is 2.5.

Coastal Water Temperatures

Place Temperature
No Stations Reporting

Nearby Weather Stations